sensor_id;sensor_type;location;lat;lon;timestamp;pressure;altitude;pressure_sealevel;temperature;humidity
11001;BME280;5553;48.506;8.870;2023-04-23T00:00:11;95869.09;;;11.32;100.00
11001;BME280;5553;48.506;8.870;2023-04-23T00:02:43;95873.78;;;11.23;100.00
11001;BME280;5553;48.506;8.870;2023-04-23T00:05:12;95869.94;;;11.26;100.00
11001;BME280;5553;48.506;8.870;2023-04-23T00:07:41;95869.88;;;11.32;100.00
11001;BME280;5553;48.506;8.870;2023-04-23T00:10:11;95871.09;;;11.36;100.00
11001;BME280;5553;48.506;8.870;2023-04-23T00:12:43;95874.38;;;11.32;100.00
11001;BME280;5553;48.506;8.870;2023-04-23T00:15:12;95865.56;;;11.38;100.00
11001;BME280;5553;48.506;8.870;2023-04-23T00:17:41;95876.63;;;11.28;100.00
11001;BME280;5553;48.506;8.870;2023-04-23T00:20:09;95874.38;;;11.32;100.00
11001;BME280;5553;48.506;8.870;2023-04-23T00:22:38;95868.22;;;11.38;100.00
11001;BME280;5553;48.506;8.870;2023-04-23T00:25:07;95882.28;;;11.32;100.00
11001;BME280;5553;48.506;8.870;2023-04-23T00:27:36;95882.91;;;11.27;100.00
11001;BME280;5553;48.506;8.870;2023-04-23T00:30:07;95889.63;;;11.23;100.00
11001;BME280;5553;48.506;8.870;2023-04-23T00:32:36;95882.91;;;11.27;100.00
11001;BME280;5553;48.506;8.870;2023-04-23T00:35:05;95890.25;;;11.25;100.00
11001;BME280;5553;48.506;8.870;2023-04-23T00:37:33;95894.75;;;11.18;100.00
11001;BME280;5553;48.506;8.870;2023-04-23T00:40:02;95894.44;;;11.39;100.00
11001;BME280;5553;48.506;8.870;2023-04-23T00:42:32;95898.31;;;11.37;100.00
11001;BME280;5553;48.506;8.870;2023-04-23T00:45:00;95900.56;;;11.33;100.00
11001;BME280;5553;48.506;8.870;2023-04-23T00:47:31;95903.97;;;11.41;100.00
11001;BME280;5553;48.506;8.870;2023-04-23T00:50:00;95902.59;;;11.31;100.00
11001;BME280;5553;48.506;8.870;2023-04-23T00:52:28;95905.97;;;11.45;100.00
11001;BME280;5553;48.506;8.870;2023-04-23T00:54:57;95909.31;;;11.27;100.00
11001;BME280;5553;48.506;8.870;2023-04-23T00:57:25;95910.50;;;11.31;100.00
11001;BME280;5553;48.506;8.870;2023-04-23T00:59:53;95912.56;;;11.29;100.00
11001;BME280;5553;48.506;8.870;2023-04-23T01:02:23;95907.28;;;11.29;100.00
11001;BME280;5553;48.506;8.870;2023-04-23T01:04:55;95921.50;;;11.28;100.00
11001;BME280;5553;48.506;8.870;2023-04-23T01:07:23;95913.41;;;11.23;100.00
11001;BME280;5553;48.506;8.870;2023-04-23T01:09:52;95923.19;;;11.09;100.00
11001;BME280;5553;48.506;8.870;2023-04-23T01:12:20;95925.63;;;11.11;100.00
11001;BME280;5553;48.506;8.870;2023-04-23T01:14:49;95925.84;;;11.03;100.00
11001;BME280;5553;48.506;8.870;2023-04-23T01:17:18;95933.16;;;11.01;100.00
11001;BME280;5553;48.506;8.870;2023-04-23T01:19:47;95928.50;;;10.96;100.00
11001;BME280;5553;48.506;8.870;2023-04-23T01:22:18;95926.69;;;10.97;100.00
11001;BME280;5553;48.506;8.870;2023-04-23T01:24:47;95935.00;;;11.00;100.00
11001;BME280;5553;48.506;8.870;2023-04-23T01:27:16;95931.53;;;11.00;100.00
11001;BME280;5553;48.506;8.870;2023-04-23T01:29:47;95931.34;;;11.01;100.00
11001;BME280;5553;48.506;8.870;2023-04-23T01:32:16;95932.75;;;10.97;100.00
11001;BME280;5553;48.506;8.870;2023-04-23T01:34:45;95935.63;;;10.89;100.00
11001;BME280;5553;48.506;8.870;2023-04-23T01:37:17;95935.06;;;10.80;100.00
11001;BME280;5553;48.506;8.870;2023-04-23T01:39:46;95936.28;;;10.71;100.00
11001;BME280;5553;48.506;8.870;2023-04-23T01:42:15;95936.88;;;10.66;100.00
11001;BME280;5553;48.506;8.870;2023-04-23T01:44:43;95955.97;;;10.62;100.00
11001;BME280;5553;48.506;8.870;2023-04-23T01:47:12;95947.47;;;10.60;100.00
11001;BME280;5553;48.506;8.870;2023-04-23T01:49:40;95956.78;;;10.56;100.00
11001;BME280;5553;48.506;8.870;2023-04-23T01:52:09;95954.78;;;10.58;100.00
11001;BME280;5553;48.506;8.870;2023-04-23T01:54:39;95964.31;;;10.59;100.00
11001;BME280;5553;48.506;8.870;2023-04-23T01:57:08;95965.53;;;10.50;100.00
11001;BME280;5553;48.506;8.870;2023-04-23T01:59:38;95963.31;;;10.47;100.00
11001;BME280;5553;48.506;8.870;2023-04-23T02:02:07;95972.22;;;10.46;100.00
11001;BME280;5553;48.506;8.870;2023-04-23T02:04:39;95969.00;;;10.37;100.00
11001;BME280;5553;48.506;8.870;2023-04-23T02:07:08;95969.56;;;10.32;100.00
11001;BME280;5553;48.506;8.870;2023-04-23T02:09:36;95965.13;;;10.33;100.00
11001;BME280;5553;48.506;8.870;2023-04-23T02:12:07;95976.66;;;10.25;100.00
11001;BME280;5553;48.506;8.870;2023-04-23T02:14:35;95984.75;;;10.17;100.00
11001;BME280;5553;48.506;8.870;2023-04-23T02:17:04;95982.13;;;10.10;100.00
11001;BME280;5553;48.506;8.870;2023-04-23T02:19:32;95991.44;;;10.06;100.00
11001;BME280;5553;48.506;8.870;2023-04-23T02:22:01;95990.22;;;10.02;100.00
11001;BME280;5553;48.506;8.870;2023-04-23T02:24:29;95993.66;;;10.03;100.00
11001;BME280;5553;48.506;8.870;2023-04-23T02:26:57;96000.56;;;10.04;100.00
11001;BME280;5553;48.506;8.870;2023-04-23T02:29:29;95996.09;;;10.11;100.00
11001;BME280;5553;48.506;8.870;2023-04-23T02:31:57;96007.44;;;10.05;100.00
11001;BME280;5553;48.506;8.870;2023-04-23T02:34:25;96017.38;;;10.03;100.00
11001;BME280;5553;48.506;8.870;2023-04-23T02:36:53;96013.13;;;10.02;100.00
11001;BME280;5553;48.506;8.870;2023-04-23T02:39:22;96010.69;;;10.07;100.00
11001;BME280;5553;48.506;8.870;2023-04-23T02:41:50;96004.41;;;10.01;100.00
11001;BME280;5553;48.506;8.870;2023-04-23T02:44:18;96011.09;;;10.04;100.00
11001;BME280;5553;48.506;8.870;2023-04-23T02:46:49;96016.16;;;9.99;100.00
11001;BME280;5553;48.506;8.870;2023-04-23T02:49:18;96024.44;;;9.89;100.00
11001;BME280;5553;48.506;8.870;2023-04-23T02:51:46;96031.16;;;9.91;100.00
11001;BME280;5553;48.506;8.870;2023-04-23T02:54:15;96038.00;;;9.86;100.00
11001;BME280;5553;48.506;8.870;2023-04-23T02:56:43;96035.97;;;9.88;100.00
11001;BME280;5553;48.506;8.870;2023-04-23T02:59:12;96030.31;;;9.91;100.00
11001;BME280;5553;48.506;8.870;2023-04-23T03:01:40;96021.59;;;9.90;100.00
11001;BME280;5553;48.506;8.870;2023-04-23T03:04:11;96031.34;;;9.90;100.00
11001;BME280;5553;48.506;8.870;2023-04-23T03:06:39;96028.28;;;9.86;100.00
11001;BME280;5553;48.506;8.870;2023-04-23T03:09:07;96023.81;;;9.80;100.00
11001;BME280;5553;48.506;8.870;2023-04-23T03:11:36;96019.16;;;9.82;100.00
11001;BME280;5553;48.506;8.870;2023-04-23T03:14:04;96019.16;;;9.82;100.00
11001;BME280;5553;48.506;8.870;2023-04-23T03:16:32;96022.16;;;9.72;100.00
11001;BME280;5553;48.506;8.870;2023-04-23T03:19:01;96016.09;;;9.72;100.00
11001;BME280;5553;48.506;8.870;2023-04-23T03:21:31;96018.31;;;9.75;100.00
11001;BME280;5553;48.506;8.870;2023-04-23T03:24:00;96015.28;;;9.71;100.00
11001;BME280;5553;48.506;8.870;2023-04-23T03:26:28;96022.16;;;9.72;100.00
11001;BME280;5553;48.506;8.870;2023-04-23T03:28:56;96013.22;;;9.67;100.00
11001;BME280;5553;48.506;8.870;2023-04-23T03:31:24;96016.06;;;9.65;100.00
11001;BME280;5553;48.506;8.870;2023-04-23T03:33:53;96020.72;;;9.70;100.00
11001;BME280;5553;48.506;8.870;2023-04-23T03:36:21;96018.91;;;9.70;100.00
11001;BME280;5553;48.506;8.870;2023-04-23T03:38:52;96011.00;;;9.70;100.00
11001;BME280;5553;48.506;8.870;2023-04-23T03:41:20;96002.31;;;9.83;100.00
11001;BME280;5553;48.506;8.870;2023-04-23T03:43:49;96004.34;;;9.88;100.00
11001;BME280;5553;48.506;8.870;2023-04-23T03:46:17;95985.31;;;9.86;100.00
11001;BME280;5553;48.506;8.870;2023-04-23T03:48:45;95990.34;;;9.81;100.00
11001;BME280;5553;48.506;8.870;2023-04-23T03:51:13;95984.28;;;9.80;100.00
11001;BME280;5553;48.506;8.870;2023-04-23T03:53:42;95992.97;;;9.74;100.00
11001;BME280;5553;48.506;8.870;2023-04-23T03:56:13;96000.66;;;9.69;100.00
11001;BME280;5553;48.506;8.870;2023-04-23T03:58:42;95996.19;;;9.63;100.00
11001;BME280;5553;48.506;8.870;2023-04-23T04:01:10;95996.16;;;9.56;100.00
11001;BME280;5553;48.506;8.870;2023-04-23T04:03:38;95996.56;;;9.53;100.00
11001;BME280;5553;48.506;8.870;2023-04-23T04:06:07;95995.09;;;9.37;100.00
11001;BME280;5553;48.506;8.870;2023-04-23T04:08:36;95996.47;;;9.27;100.00
11001;BME280;5553;48.506;8.870;2023-04-23T04:11:04;95990.38;;;9.26;100.00
11001;BME280;5553;48.506;8.870;2023-04-23T04:13:35;95984.44;;;9.11;100.00
11001;BME280;5553;48.506;8.870;2023-04-23T04:16:04;95972.47;;;9.08;100.00
11001;BME280;5553;48.506;8.870;2023-04-23T04:18:32;95981.34;;;9.00;100.00
11001;BME280;5553;48.506;8.870;2023-04-23T04:21:00;95987.16;;;8.89;100.00
11001;BME280;5553;48.506;8.870;2023-04-23T04:23:28;95982.66;;;8.83;100.00
11001;BME280;5553;48.506;8.870;2023-04-23T04:25:58;95989.16;;;8.87;100.00
11001;BME280;5553;48.506;8.870;2023-04-23T04:28:26;95993.41;;;8.88;100.00
11001;BME280;5553;48.506;8.870;2023-04-23T04:30:57;95994.41;;;8.87;100.00
11001;BME280;5553;48.506;8.870;2023-04-23T04:33:26;95993.66;;;8.93;100.00
11001;BME280;5553;48.506;8.870;2023-04-23T04:35:55;95974.84;;;8.96;100.00
11001;BME280;5553;48.506;8.870;2023-04-23T04:38:23;95972.81;;;8.98;100.00
11001;BME280;5553;48.506;8.870;2023-04-23T04:40:53;95974.47;;;8.99;100.00
11001;BME280;5553;48.506;8.870;2023-04-23T04:43:24;95967.16;;;9.01;100.00
11001;BME280;5553;48.506;8.870;2023-04-23T04:45:53;95970.84;;;9.07;100.00
11001;BME280;5553;48.506;8.870;2023-04-23T04:48:26;95974.69;;;9.05;100.00
11001;BME280;5553;48.506;8.870;2023-04-23T04:50:54;95970.66;;;9.09;100.00
11001;BME280;5553;48.506;8.870;2023-04-23T04:53:22;95979.94;;;9.05;100.00
11001;BME280;5553;48.506;8.870;2023-04-23T04:55:51;95978.13;;;9.05;100.00
11001;BME280;5553;48.506;8.870;2023-04-23T04:58:19;95984.59;;;9.02;100.00
11001;BME280;5553;48.506;8.870;2023-04-23T05:00:47;95986.63;;;9.07;100.00
11001;BME280;5553;48.506;8.870;2023-04-23T05:03:16;95986.44;;;9.09;100.00
11001;BME280;5553;48.506;8.870;2023-04-23T05:05:47;95984.66;;;9.16;100.00
11001;BME280;5553;48.506;8.870;2023-04-23T05:08:15;95991.16;;;9.20;100.00
11001;BME280;5553;48.506;8.870;2023-04-23T05:10:46;95983.88;;;9.22;100.00
11001;BME280;5553;48.506;8.870;2023-04-23T05:13:14;95988.34;;;9.28;100.00
11001;BME280;5553;48.506;8.870;2023-04-23T05:15:44;95982.53;;;9.39;100.00
11001;BME280;5553;48.506;8.870;2023-04-23T05:18:12;95977.09;;;9.47;100.00
11001;BME280;5553;48.506;8.870;2023-04-23T05:20:41;95975.91;;;9.57;100.00
11001;BME280;5553;48.506;8.870;2023-04-23T05:23:11;95972.88;;;9.60;100.00
11001;BME280;5553;48.506;8.870;2023-04-23T05:25:40;95971.69;;;9.62;100.00
11001;BME280;5553;48.506;8.870;2023-04-23T05:28:08;95974.75;;;9.72;100.00
11001;BME280;5553;48.506;8.870;2023-04-23T05:30:36;95980.00;;;9.72;100.00
11001;BME280;5553;48.506;8.870;2023-04-23T05:33:05;95971.13;;;9.87;100.00
